Time;durP1;ratioP1;P1;durP2;ratioP2;P2;SDS_P1;SDS_P2;PMS_P1;PMS_P2;Temp;Humidity;BMP_temperature;BMP_pressure;BME280_temperature;BME280_humidity;BME280_pressure;Samples;Min_cycle;Max_cycle;Signal;HPM_P1;HPM_P2
2023/01/05 07:35:28;;;;;;;0.40;0.40;;;8.00;99.90;;;;;;5062128;28;20247;-77
2023/01/05 07:37:56;;;;;;;0.43;0.43;;;8.00;99.90;;;;;;5058947;28;20221;-76
2023/01/05 07:40:22;;;;;;;1.08;0.47;;;8.00;99.90;;;;;;5055550;28;20204;-76
2023/01/05 07:42:50;;;;;;;0.73;0.43;;;8.00;99.90;;;;;;5056368;28;20233;-77
2023/01/05 07:45:17;;;;;;;0.55;0.40;;;8.00;99.90;;;;;;5056083;28;20246;-77
2023/01/05 07:47:44;;;;;;;0.30;0.30;;;8.00;99.90;;;;;;5059518;28;20217;-76
2023/01/05 07:50:16;;;;;;;0.30;0.30;;;8.10;99.90;;;;;;5057379;28;20204;-76
2023/01/05 07:52:44;;;;;;;0.57;0.57;;;8.10;99.90;;;;;;5063599;28;20226;-77
2023/01/05 07:55:11;;;;;;;0.80;0.60;;;8.10;99.90;;;;;;5062098;28;20231;-77
2023/01/05 07:57:38;;;;;;;0.50;0.50;;;8.10;99.90;;;;;;5062222;28;20211;-76
2023/01/05 08:00:07;;;;;;;0.50;0.50;;;8.20;99.90;;;;;;5061962;28;20228;-76
2023/01/05 08:02:34;;;;;;;0.52;0.52;;;8.10;99.90;;;;;;5059850;28;20229;-76
2023/01/05 08:05:01;;;;;;;1.15;0.50;;;8.20;99.90;;;;;;5061001;28;20555;-76
2023/01/05 08:07:28;;;;;;;0.30;0.30;;;8.20;99.90;;;;;;5059990;28;20200;-76
2023/01/05 08:15:21;;;;;;;5.20;0.40;;;8.20;99.90;;;;;;5058081;28;20203;-76
2023/01/05 08:17:48;;;;;;;0.38;0.38;;;8.20;99.90;;;;;;5061011;28;20208;-76
2023/01/05 08:20:15;;;;;;;0.40;0.40;;;8.30;99.90;;;;;;5062461;28;20205;-76
2023/01/05 08:22:41;;;;;;;0.38;0.38;;;8.30;99.90;;;;;;5062008;28;20232;-76
2023/01/05 08:25:10;;;;;;;0.63;0.40;;;8.30;99.90;;;;;;5058299;28;20208;-76
2023/01/05 08:27:36;;;;;;;0.40;0.40;;;8.40;99.90;;;;;;5053493;28;20216;-75
2023/01/05 08:30:04;;;;;;;0.40;0.40;;;8.40;99.90;;;;;;5053472;28;20201;-75
2023/01/05 08:32:30;;;;;;;0.40;0.40;;;8.50;99.90;;;;;;5053483;28;20221;-75
2023/01/05 08:34:57;;;;;;;0.40;0.40;;;8.50;99.90;;;;;;5057011;28;20204;-76
2023/01/05 08:37:24;;;;;;;0.40;0.30;;;8.50;99.90;;;;;;5057260;28;20706;-75
2023/01/05 08:39:50;;;;;;;0.40;0.40;;;8.50;99.90;;;;;;5056687;28;20200;-75
2023/01/05 08:42:18;;;;;;;0.45;0.45;;;8.50;99.90;;;;;;5056744;28;20225;-76
2023/01/05 08:44:45;;;;;;;0.40;0.40;;;8.60;99.90;;;;;;5057001;28;20215;-75
2023/01/05 08:47:12;;;;;;;0.50;0.50;;;8.60;99.90;;;;;;5057039;28;20280;-75
2023/01/05 08:49:38;;;;;;;0.50;0.50;;;8.60;99.90;;;;;;5056879;28;20196;-76
2023/01/05 08:52:06;;;;;;;0.50;0.50;;;8.60;99.90;;;;;;5058810;28;20226;-75
2023/01/05 08:54:32;;;;;;;0.95;0.50;;;8.60;99.90;;;;;;5059566;28;20267;-75
2023/01/05 08:56:59;;;;;;;0.40;0.40;;;8.60;99.90;;;;;;5062513;28;20201;-75
2023/01/05 08:59:27;;;;;;;0.65;0.65;;;8.60;99.90;;;;;;5058617;28;20211;-76
2023/01/05 09:01:54;;;;;;;0.60;0.60;;;8.60;99.90;;;;;;5060876;28;20216;-75
2023/01/05 09:04:21;;;;;;;0.50;0.50;;;8.60;99.90;;;;;;5061269;28;20228;-75
2023/01/05 09:06:47;;;;;;;1.08;0.82;;;8.60;99.90;;;;;;5062137;28;20200;-75
2023/01/05 09:09:14;;;;;;;0.75;0.75;;;8.60;99.90;;;;;;5061968;28;20563;-75
2023/01/05 09:11:41;;;;;;;0.90;0.90;;;8.60;99.90;;;;;;5062154;28;20197;-75
2023/01/05 09:14:11;;;;;;;2.05;1.73;;;8.60;99.90;;;;;;5063424;28;20211;-75
2023/01/05 09:16:39;;;;;;;2.72;2.40;;;8.60;99.90;;;;;;5061611;28;20544;-74
2023/01/05 09:19:06;;;;;;;1.85;1.75;;;8.60;99.90;;;;;;5062201;28;20203;-75
2023/01/05 09:21:33;;;;;;;3.03;1.30;;;8.60;99.90;;;;;;5059270;28;20200;-75
2023/01/05 09:23:59;;;;;;;1.40;1.30;;;8.60;99.90;;;;;;5059533;28;20229;-74
2023/01/05 09:26:26;;;;;;;0.65;0.65;;;8.60;99.90;;;;;;5059855;28;20201;-75
2023/01/05 09:28:53;;;;;;;1.20;1.10;;;8.70;99.90;;;;;;5060635;28;20231;-74
2023/01/05 09:31:21;;;;;;;0.70;0.70;;;8.70;99.90;;;;;;5060908;28;20205;-74
2023/01/05 09:33:49;;;;;;;2.47;0.70;;;8.80;99.90;;;;;;5060007;28;20221;-73
2023/01/05 09:36:18;;;;;;;0.80;0.70;;;8.80;99.90;;;;;;5062413;28;20208;-75
2023/01/05 09:38:48;;;;;;;1.00;0.90;;;8.90;99.90;;;;;;5060716;28;20258;-76
2023/01/05 09:41:21;;;;;;;0.90;0.90;;;8.90;99.90;;;;;;5061662;28;20644;-74
2023/01/05 09:43:52;;;;;;;0.77;0.77;;;9.00;99.90;;;;;;5076055;28;20223;-76
2023/01/05 09:46:23;;;;;;;0.50;0.50;;;9.00;99.90;;;;;;5077440;28;20189;-73
2023/01/05 09:48:53;;;;;;;0.95;0.40;;;9.10;99.90;;;;;;5073174;28;20176;-73
2023/01/05 09:51:20;;;;;;;0.52;0.52;;;9.10;99.90;;;;;;5075984;28;20192;-76
2023/01/05 09:53:47;;;;;;;0.60;0.60;;;9.10;99.90;;;;;;5066554;28;20227;-76
2023/01/05 09:56:26;;;;;;;2.15;0.77;;;9.10;99.90;;;;;;5062365;28;20204;-77
2023/01/05 09:58:55;;;;;;;1.33;1.02;;;9.20;99.90;;;;;;5059443;28;20223;-73
2023/01/05 10:01:23;;;;;;;1.75;1.17;;;9.30;99.90;;;;;;5056604;28;20200;-75
2023/01/05 10:03:57;;;;;;;4.32;2.38;;;9.50;99.90;;;;;;5055404;28;20232;-74
2023/01/05 10:06:29;;;;;;;4.32;2.20;;;9.60;99.90;;;;;;5055505;28;20559;-74
2023/01/05 10:08:56;;;;;;;3.00;1.88;;;9.70;99.90;;;;;;5055153;28;20276;-75
2023/01/05 10:14:17;;;;;;;2.25;2.05;;;9.80;99.90;;;;;;5054792;28;20188;-72
2023/01/05 10:16:45;;;;;;;1.92;1.70;;;9.80;99.90;;;;;;5055298;28;20208;-74
2023/01/05 10:19:16;;;;;;;1.13;1.13;;;9.80;99.90;;;;;;5055564;28;20207;-75
2023/01/05 10:21:52;;;;;;;9.30;3.60;;;9.80;99.90;;;;;;5055192;28;20205;-75
2023/01/05 10:24:27;;;;;;;0.55;0.50;;;9.90;99.90;;;;;;5055564;28;20184;-74
2023/01/05 10:26:59;;;;;;;6.80;1.20;;;10.10;99.90;;;;;;5056817;28;20203;-76
2023/01/05 10:29:31;;;;;;;0.68;0.68;;;10.20;99.90;;;;;;5055417;28;20196;-76
2023/01/05 10:32:11;;;;;;;3.05;1.67;;;10.20;99.90;;;;;;5056536;28;20208;-74
2023/01/05 10:35:05;;;;;;;1.08;1.02;;;10.20;99.90;;;;;;5054614;28;20185;-71
2023/01/05 10:37:52;;;;;;;0.93;0.93;;;10.20;99.90;;;;;;5054285;28;20260;-72
2023/01/05 10:40:28;;;;;;;2.45;0.88;;;10.30;99.90;;;;;;5054300;28;20196;-69
2023/01/05 10:43:14;;;;;;;0.70;0.70;;;10.20;99.90;;;;;;5054285;28;20224;-70
2023/01/05 10:45:41;;;;;;;2.42;1.33;;;10.20;99.90;;;;;;5054140;28;20192;-71
2023/01/05 10:48:13;;;;;;;3.50;0.70;;;10.10;99.90;;;;;;5054222;28;20197;-72
2023/01/05 10:50:42;;;;;;;4.43;0.93;;;10.10;99.90;;;;;;5054565;28;20209;-72
2023/01/05 10:53:12;;;;;;;0.95;0.77;;;10.10;99.90;;;;;;5053837;28;20584;-72
2023/01/05 10:55:48;;;;;;;3.03;0.50;;;10.00;99.90;;;;;;5053664;28;20227;-71
2023/01/05 10:58:23;;;;;;;2.00;0.65;;;10.00;99.90;;;;;;5053959;28;20184;-71
2023/01/05 11:00:50;;;;;;;2.13;0.60;;;10.00;99.90;;;;;;5054030;28;20226;-71
2023/01/05 11:03:18;;;;;;;1.73;0.70;;;10.00;99.90;;;;;;5054016;28;20259;-71
2023/01/05 11:05:48;;;;;;;1.80;1.20;;;10.00;99.90;;;;;;5054234;28;20204;-72
2023/01/05 11:08:17;;;;;;;2.20;0.65;;;9.90;99.90;;;;;;5053770;28;20675;-71
2023/01/05 11:10:51;;;;;;;1.52;0.73;;;9.80;99.90;;;;;;5054019;28;20228;-71
2023/01/05 11:13:24;;;;;;;1.65;0.57;;;9.80;99.90;;;;;;5053651;28;20755;-73
2023/01/05 11:15:55;;;;;;;2.35;0.93;;;9.90;99.90;;;;;;5053648;28;20185;-74
2023/01/05 11:18:26;;;;;;;1.52;0.80;;;9.90;99.90;;;;;;5053926;28;20204;-74
2023/01/05 11:21:12;;;;;;;1.58;0.80;;;10.00;99.90;;;;;;5054357;28;20272;-72
2023/01/05 11:23:41;;;;;;;3.83;1.15;;;10.10;99.90;;;;;;5053923;28;20221;-72
2023/01/05 11:26:33;;;;;;;1.05;1.05;;;10.20;99.90;;;;;;5054440;28;20200;-72
2023/01/05 11:29:09;;;;;;;1.85;0.75;;;10.30;99.90;;;;;;5054147;28;20185;-73
2023/01/05 11:31:41;;;;;;;1.38;0.60;;;10.40;99.90;;;;;;5053834;28;20188;-73
2023/01/05 11:34:16;;;;;;;3.13;1.17;;;10.60;99.90;;;;;;5053625;28;20226;-73
2023/01/05 11:36:52;;;;;;;2.67;0.75;;;10.60;99.90;;;;;;5055191;28;20188;-72
2023/01/05 11:39:25;;;;;;;3.55;0.90;;;10.60;99.90;;;;;;5054184;28;20200;-72
2023/01/05 11:42:04;;;;;;;1.23;0.60;;;10.60;99.90;;;;;;5053333;28;20189;-72
2023/01/05 11:44:31;;;;;;;2.20;1.00;;;10.60;99.90;;;;;;5054291;28;20204;-73
2023/01/05 11:46:58;;;;;;;1.15;0.90;;;10.60;99.90;;;;;;5053915;28;20227;-72
2023/01/05 11:49:26;;;;;;;2.90;1.02;;;10.50;99.90;;;;;;5053657;28;20672;-73
2023/01/05 11:51:54;;;;;;;3.63;1.23;;;10.50;99.90;;;;;;5053515;28;20189;-73
2023/01/05 11:54:33;;;;;;;2.40;1.13;;;10.40;99.90;;;;;;5053948;28;20283;-73
2023/01/05 11:57:15;;;;;;;2.42;1.10;;;10.40;99.90;;;;;;5053923;28;20192;-76
2023/01/05 11:59:44;;;;;;;2.85;1.20;;;10.40;99.90;;;;;;5055987;28;20192;-76
2023/01/05 12:02:44;;;;;;;2.88;1.15;;;10.40;99.90;;;;;;5056245;28;20591;-74
2023/01/05 12:05:24;;;;;;;4.50;1.10;;;10.50;99.90;;;;;;5031982;28;20196;-75
2023/01/05 12:07:58;;;;;;;3.83;1.10;;;10.50;99.90;;;;;;5059398;28;20311;-75
2023/01/05 12:10:56;;;;;;;1.45;0.93;;;10.40;99.90;;;;;;5057294;28;20188;-73
2023/01/05 12:13:47;;;;;;;1.48;0.88;;;10.40;99.90;;;;;;5057049;28;20221;-73
2023/01/05 12:16:29;;;;;;;4.32;0.82;;;10.40;99.90;;;;;;5048589;28;20216;-74
2023/01/05 12:19:42;;;;;;;1.85;0.60;;;10.30;99.90;;;;;;5057052;28;20197;-74
2023/01/05 12:22:39;;;;;;;2.63;1.15;;;10.30;99.90;;;;;;5042241;28;20235;-73
2023/01/05 12:25:29;;;;;;;1.60;0.80;;;10.20;99.90;;;;;;5058962;28;20181;-74
2023/01/05 12:28:16;;;;;;;2.08;1.05;;;10.30;99.90;;;;;;5058429;28;20196;-77
2023/01/05 12:30:48;;;;;;;1.92;1.00;;;10.30;99.90;;;;;;5057079;28;20185;-77
2023/01/05 12:33:49;;;;;;;1.67;0.70;;;10.40;99.90;;;;;;5056725;28;20228;-77
2023/01/05 12:36:27;;;;;;;2.08;0.52;;;10.40;99.90;;;;;;5057072;28;20204;-78
2023/01/05 12:39:09;;;;;;;0.93;0.60;;;10.50;99.90;;;;;;5057677;28;20215;-77
2023/01/05 12:41:50;;;;;;;3.00;0.85;;;10.50;99.90;;;;;;5056924;28;20192;-77
2023/01/05 12:44:44;;;;;;;2.72;0.90;;;10.60;99.90;;;;;;5056494;28;20208;-76
2023/01/05 12:47:37;;;;;;;1.27;0.82;;;10.70;99.90;;;;;;5056651;28;20189;-76
2023/01/05 12:50:20;;;;;;;2.38;1.30;;;10.80;99.90;;;;;;5056831;28;20189;-76
2023/01/05 12:52:50;;;;;;;8.70;4.85;;;10.80;99.90;;;;;;5056765;28;20229;-76
2023/01/05 12:55:20;;;;;;;3.88;2.25;;;10.90;99.90;;;;;;5056695;28;20188;-76
2023/01/05 12:57:53;;;;;;;1.88;1.48;;;10.90;99.90;;;;;;5056750;28;20188;-76
2023/01/05 13:00:21;;;;;;;4.90;1.85;;;10.90;99.90;;;;;;5056885;28;20684;-76
2023/01/05 13:02:55;;;;;;;3.75;1.50;;;10.90;99.90;;;;;;5056211;28;20311;-76
2023/01/05 13:05:27;;;;;;;4.53;1.05;;;10.80;99.90;;;;;;5056603;28;20189;-76
2023/01/05 13:07:57;;;;;;;2.38;1.02;;;10.90;99.90;;;;;;5056321;28;20189;-75
2023/01/05 13:10:33;;;;;;;1.17;1.05;;;10.90;99.90;;;;;;5057106;28;20204;-75
2023/01/05 13:13:05;;;;;;;1.48;1.00;;;10.80;99.90;;;;;;5056276;28;20216;-76
2023/01/05 13:15:36;;;;;;;1.00;0.98;;;10.80;99.90;;;;;;5056168;28;20192;-75
2023/01/05 13:18:05;;;;;;;4.00;1.05;;;10.80;99.90;;;;;;5056431;28;20185;-75
2023/01/05 13:20:39;;;;;;;0.90;0.90;;;10.70;99.90;;;;;;5055547;28;20208;-74
2023/01/05 13:23:13;;;;;;;0.98;0.90;;;10.70;99.90;;;;;;5056039;28;20224;-75
2023/01/05 13:25:49;;;;;;;2.38;0.95;;;10.70;99.90;;;;;;5056054;28;20184;-75
2023/01/05 13:28:20;;;;;;;3.40;1.25;;;10.60;99.90;;;;;;5056331;28;20185;-75
2023/01/05 13:31:01;;;;;;;1.23;1.10;;;10.60;99.90;;;;;;5056995;28;20210;-74
2023/01/05 13:33:44;;;;;;;1.20;1.13;;;10.60;99.90;;;;;;5055844;28;20596;-75
2023/01/05 13:36:28;;;;;;;1.85;1.13;;;10.70;99.90;;;;;;5056130;28;20185;-75
2023/01/05 13:39:15;;;;;;;0.80;0.80;;;10.60;99.90;;;;;;5055865;28;20263;-75
2023/01/05 13:42:34;;;;;;;0.98;0.98;;;10.40;99.90;;;;;;5055596;28;20235;-76
2023/01/05 13:45:39;;;;;;;1.20;0.88;;;10.40;99.90;;;;;;4993789;28;20238;-76
2023/01/05 13:48:20;;;;;;;1.38;0.82;;;10.30;99.90;;;;;;4993169;28;20199;-76
2023/01/05 13:51:22;;;;;;;0.57;0.57;;;10.30;99.90;;;;;;5043420;28;20556;-76
2023/01/05 13:53:52;;;;;;;1.27;0.60;;;10.30;99.90;;;;;;5036351;28;20583;-76
2023/01/05 13:56:23;;;;;;;1.10;0.70;;;10.20;99.90;;;;;;5055271;28;20189;-75
2023/01/05 13:58:52;;;;;;;0.70;0.70;;;10.20;99.90;;;;;;5055714;28;20181;-75
2023/01/05 14:01:36;;;;;;;0.70;0.70;;;10.20;99.90;;;;;;5055177;28;20200;-74
2023/01/05 14:04:04;;;;;;;0.85;0.50;;;10.20;99.90;;;;;;5054800;28;20220;-76
2023/01/05 14:06:34;;;;;;;0.65;0.55;;;10.20;99.90;;;;;;5055212;28;20208;-77
2023/01/05 14:57:22;;;;;;;0.60;0.60;;;10.00;99.90;;;;;;5303031;22;20232;-78
2023/01/05 14:59:51;;;;;;;0.60;0.60;;;10.00;99.90;;;;;;5058616;28;20631;-78
2023/01/05 15:02:24;;;;;;;0.70;0.70;;;9.90;99.90;;;;;;5055529;28;20207;-77
2023/01/05 15:04:54;;;;;;;5.63;3.50;;;9.90;99.90;;;;;;5053760;28;20571;-77
2023/01/05 15:07:33;;;;;;;0.85;0.85;;;9.80;99.90;;;;;;5033837;28;20193;-77
2023/01/05 15:10:36;;;;;;;0.60;0.60;;;9.90;99.90;;;;;;5055387;22;20236;-76
2023/01/05 15:13:24;;;;;;;2.65;2.30;;;9.90;99.90;;;;;;5054193;28;20204;-76
2023/01/05 15:15:58;;;;;;;0.93;0.90;;;9.80;99.90;;;;;;5064632;28;20180;-76
2023/01/05 15:18:41;;;;;;;1.55;1.45;;;9.80;99.90;;;;;;5073508;28;20185;-76
2023/01/05 15:21:45;;;;;;;1.77;1.40;;;9.80;99.90;;;;;;5074001;28;20224;-76
2023/01/05 15:25:04;;;;;;;1.95;0.90;;;9.80;99.90;;;;;;5073954;28;20196;-76
2023/01/05 15:27:52;;;;;;;1.20;1.10;;;9.70;99.90;;;;;;5056871;28;20215;-76
2023/01/05 15:30:55;;;;;;;1.00;1.00;;;9.60;99.90;;;;;;5055088;28;20221;-76
2023/01/05 15:33:33;;;;;;;3.25;1.67;;;9.60;99.90;;;;;;5054286;28;20226;-76
2023/01/05 15:36:04;;;;;;;3.03;1.48;;;9.60;99.90;;;;;;5056253;28;20632;-78
2023/01/05 15:38:43;;;;;;;3.75;2.97;;;9.50;99.90;;;;;;5058362;28;20188;-78
2023/01/05 15:41:13;;;;;;;3.28;3.03;;;9.50;99.90;;;;;;5057671;28;20224;-78
2023/01/05 15:43:42;;;;;;;3.42;3.22;;;9.40;99.90;;;;;;5059831;28;20316;-76
2023/01/05 15:46:11;;;;;;;2.45;2.35;;;9.40;99.90;;;;;;5060055;28;20196;-79
2023/01/05 15:48:42;;;;;;;3.28;2.95;;;9.40;99.90;;;;;;5060278;28;20200;-78
2023/01/05 15:51:10;;;;;;;3.55;2.50;;;9.30;99.90;;;;;;5060620;28;20230;-78
2023/01/05 15:53:39;;;;;;;3.47;3.10;;;9.30;99.90;;;;;;5061892;28;20228;-79
2023/01/05 15:56:25;;;;;;;6.10;3.33;;;9.30;99.90;;;;;;5062042;28;20208;-78
2023/01/05 15:58:52;;;;;;;3.10;2.72;;;9.30;99.90;;;;;;5060784;28;20188;-78
2023/01/05 16:01:20;;;;;;;2.50;2.17;;;9.20;99.90;;;;;;5061222;28;20220;-79
2023/01/05 16:03:48;;;;;;;2.20;1.60;;;9.30;99.90;;;;;;5062146;28;20223;-79
2023/01/05 16:06:18;;;;;;;2.28;1.70;;;9.30;99.90;;;;;;5059898;28;20201;-76
2023/01/05 16:08:47;;;;;;;1.58;1.20;;;9.20;99.90;;;;;;5058544;28;20193;-77
2023/01/05 16:11:21;;;;;;;2.25;1.40;;;9.20;99.90;;;;;;5058716;28;20719;-77
2023/01/05 16:13:50;;;;;;;0.98;0.98;;;9.20;99.90;;;;;;5058678;28;20201;-77
2023/01/05 16:16:25;;;;;;;1.00;1.00;;;9.20;99.90;;;;;;5058974;28;20280;-77
2023/01/05 16:18:56;;;;;;;1.10;1.10;;;9.20;99.90;;;;;;5058138;28;20189;-77
2023/01/05 16:21:28;;;;;;;2.05;1.20;;;9.10;99.90;;;;;;5057387;28;20723;-77
2023/01/05 16:24:00;;;;;;;1.10;0.90;;;9.20;99.90;;;;;;5057650;28;20201;-77
2023/01/05 16:26:27;;;;;;;0.75;0.75;;;9.20;99.90;;;;;;5059108;28;20522;-77
2023/01/05 16:28:54;;;;;;;0.98;0.98;;;9.10;99.90;;;;;;5057792;28;20695;-76
2023/01/05 16:31:29;;;;;;;1.33;1.00;;;9.10;99.90;;;;;;5058855;28;20228;-76
2023/01/05 16:34:05;;;;;;;1.10;0.93;;;9.10;99.90;;;;;;5061259;28;20181;-76
2023/01/05 16:36:31;;;;;;;0.98;0.77;;;9.10;99.90;;;;;;5067878;28;20215;-76
2023/01/05 16:39:16;;;;;;;2.15;0.80;;;9.10;99.90;;;;;;5071761;28;20209;-77
2023/01/05 16:44:23;;;;;;;0.80;0.80;;;9.10;99.90;;;;;;5070798;28;20216;-76
2023/01/05 16:47:04;;;;;;;3.95;3.30;;;9.10;99.90;;;;;;5070487;28;20204;-76
2023/01/05 16:49:36;;;;;;;10.77;5.28;;;9.10;99.90;;;;;;5074534;28;20225;-76
2023/01/05 16:52:05;;;;;;;13.45;8.55;;;9.00;99.90;;;;;;5072325;28;20201;-76
2023/01/05 16:54:38;;;;;;;17.38;9.13;;;9.00;99.90;;;;;;5066565;28;20201;-76
2023/01/05 16:57:23;;;;;;;12.80;8.43;;;8.90;99.90;;;;;;5063212;28;20275;-77
2023/01/05 16:59:51;;;;;;;11.25;7.55;;;8.90;99.90;;;;;;5057235;28;20719;-76
2023/01/05 17:02:44;;;;;;;5.18;4.60;;;8.80;99.90;;;;;;5058135;28;20200;-77
2023/01/05 17:05:13;;;;;;;4.75;4.32;;;8.80;99.90;;;;;;5064462;28;20208;-77
2023/01/05 17:07:43;;;;;;;4.80;4.10;;;8.80;99.90;;;;;;5057077;28;20204;-77
2023/01/05 17:10:24;;;;;;;3.17;2.97;;;8.70;99.90;;;;;;5058094;28;20256;-76
2023/01/05 17:12:57;;;;;;;3.72;2.90;;;8.70;99.90;;;;;;5056197;28;20208;-76
2023/01/05 17:15:28;;;;;;;2.70;2.50;;;8.70;99.90;;;;;;5056739;28;20185;-76
2023/01/05 17:17:56;;;;;;;2.28;2.17;;;8.70;99.90;;;;;;5056919;28;20255;-77
2023/01/05 17:20:24;;;;;;;2.20;2.10;;;8.70;99.90;;;;;;5056145;28;20224;-76
2023/01/05 17:22:53;;;;;;;2.00;1.90;;;8.70;99.90;;;;;;5056322;28;20212;-76
2023/01/05 17:25:20;;;;;;;2.40;1.75;;;8.70;99.90;;;;;;5055559;28;20702;-76
2023/01/05 17:27:47;;;;;;;1.38;1.30;;;8.60;99.90;;;;;;5056075;28;20250;-76
2023/01/05 17:30:19;;;;;;;1.10;1.10;;;8.60;99.90;;;;;;5055983;28;20228;-74
2023/01/05 17:32:47;;;;;;;1.42;1.10;;;8.60;99.90;;;;;;5055543;28;20542;-73
2023/01/05 17:35:15;;;;;;;2.78;1.02;;;8.60;99.90;;;;;;5055718;28;20586;-74
2023/01/05 17:37:43;;;;;;;2.20;2.05;;;8.50;99.90;;;;;;5055529;28;20211;-73
2023/01/05 17:40:16;;;;;;;3.63;3.42;;;8.50;99.90;;;;;;5055784;28;20308;-77
2023/01/05 17:42:43;;;;;;;4.95;3.10;;;8.50;99.90;;;;;;5055707;28;20185;-77
2023/01/05 17:45:13;;;;;;;3.30;3.10;;;8.50;99.90;;;;;;5058560;28;20564;-78
2023/01/05 17:47:40;;;;;;;2.83;2.25;;;8.40;99.90;;;;;;5059148;28;20211;-78
2023/01/05 17:50:08;;;;;;;2.90;2.22;;;8.40;99.90;;;;;;5059340;28;20274;-77
2023/01/05 17:52:36;;;;;;;2.22;2.13;;;8.40;99.90;;;;;;5058246;28;20673;-79
2023/01/05 17:55:03;;;;;;;2.08;2.08;;;8.40;99.90;;;;;;5057862;28;20200;-78
2023/01/05 17:57:29;;;;;;;2.03;1.80;;;8.40;99.90;;;;;;5059574;28;20203;-79
2023/01/05 17:59:56;;;;;;;4.60;4.20;;;8.40;99.90;;;;;;5060033;28;20221;-78
2023/01/05 18:02:24;;;;;;;11.65;8.02;;;8.40;99.90;;;;;;5067502;28;20211;-78
2023/01/05 18:04:51;;;;;;;10.73;8.55;;;8.30;99.90;;;;;;5075656;28;20221;-77
2023/01/05 18:07:17;;;;;;;9.80;7.45;;;8.30;99.90;;;;;;5074555;28;20184;-77
2023/01/05 18:09:45;;;;;;;11.65;7.53;;;8.30;99.90;;;;;;5075313;28;20215;-77
2023/01/05 18:12:12;;;;;;;7.50;6.70;;;8.30;99.90;;;;;;5070551;28;20544;-77
2023/01/05 18:14:39;;;;;;;6.32;4.28;;;8.30;99.90;;;;;;5058445;28;20201;-78
2023/01/05 18:17:05;;;;;;;3.17;2.88;;;8.30;99.90;;;;;;5057018;28;20227;-78
2023/01/05 18:19:32;;;;;;;4.68;3.35;;;8.20;99.90;;;;;;5056224;28;20225;-78
2023/01/05 18:21:59;;;;;;;5.45;3.33;;;8.20;99.90;;;;;;5055719;28;20254;-77
2023/01/05 18:24:26;;;;;;;13.13;6.03;;;8.20;99.90;;;;;;5057077;28;20224;-77
2023/01/05 18:26:54;;;;;;;12.90;5.72;;;8.20;99.90;;;;;;5055582;28;20208;-77
2023/01/05 18:29:21;;;;;;;15.98;6.93;;;8.20;99.90;;;;;;5058892;28;20201;-79
2023/01/05 18:31:48;;;;;;;29.02;12.48;;;8.10;99.90;;;;;;5057138;28;20204;-77
2023/01/05 18:34:15;;;;;;;30.30;15.07;;;8.10;99.90;;;;;;5058206;28;20211;-77
2023/01/05 18:36:41;;;;;;;28.40;11.90;;;8.00;99.90;;;;;;5055743;28;20690;-77
2023/01/05 18:39:08;;;;;;;16.02;8.75;;;8.00;99.90;;;;;;5055763;28;20204;-78
2023/01/05 18:41:35;;;;;;;6.70;3.92;;;8.00;99.90;;;;;;5058085;28;20200;-77
2023/01/05 18:44:03;;;;;;;7.43;3.20;;;8.00;99.90;;;;;;5057992;28;20201;-77
2023/01/05 18:46:30;;;;;;;3.80;1.92;;;7.90;99.90;;;;;;5056763;28;20224;-77
2023/01/05 18:48:57;;;;;;;2.38;1.60;;;7.90;99.90;;;;;;5056859;28;20241;-77
2023/01/05 18:51:23;;;;;;;2.38;1.80;;;7.90;99.90;;;;;;5060255;28;20228;-77
2023/01/05 18:53:50;;;;;;;1.17;1.17;;;7.90;99.90;;;;;;5057426;28;20205;-77
2023/01/05 18:56:17;;;;;;;4.32;1.40;;;7.90;99.90;;;;;;5055800;28;20197;-77
2023/01/05 18:58:44;;;;;;;0.80;0.80;;;7.80;99.90;;;;;;5056113;28;20202;-75
2023/01/05 19:01:13;;;;;;;3.42;1.17;;;7.80;99.90;;;;;;5054518;28;20278;-76
2023/01/05 19:03:41;;;;;;;1.10;1.10;;;7.70;99.90;;;;;;5053952;28;20560;-77
2023/01/05 19:06:09;;;;;;;1.77;1.67;;;7.70;99.90;;;;;;5053597;28;20583;-77
2023/01/05 19:08:36;;;;;;;3.30;2.60;;;7.70;99.90;;;;;;5054793;28;20311;-77
2023/01/05 19:11:11;;;;;;;1.80;1.70;;;7.70;99.90;;;;;;5053710;28;20232;-75
2023/01/05 19:13:38;;;;;;;1.83;1.73;;;7.60;99.90;;;;;;5054381;28;20188;-75
2023/01/05 19:16:06;;;;;;;2.85;1.30;;;7.60;99.90;;;;;;5053723;28;20655;-75
2023/01/05 19:18:34;;;;;;;1.40;1.40;;;7.50;99.90;;;;;;5053388;28;20235;-75
2023/01/05 19:21:01;;;;;;;4.07;1.27;;;7.50;99.90;;;;;;5053874;28;20224;-76
2023/01/05 19:23:28;;;;;;;9.63;5.53;;;7.50;99.90;;;;;;5053856;28;20212;-76
2023/01/05 19:26:00;;;;;;;4.63;2.90;;;7.60;99.90;;;;;;5054166;28;20579;-78
2023/01/05 19:28:27;;;;;;;4.30;2.30;;;7.60;99.90;;;;;;5055956;28;20600;-78
2023/01/05 19:30:53;;;;;;;5.65;2.80;;;7.60;99.90;;;;;;5058913;28;20232;-78
2023/01/05 19:33:20;;;;;;;8.15;3.92;;;7.50;99.90;;;;;;5054645;28;20200;-78
2023/01/05 19:35:48;;;;;;;10.35;6.80;;;7.50;99.90;;;;;;5054550;28;20196;-79
2023/01/05 19:38:15;;;;;;;4.22;3.83;;;7.50;99.90;;;;;;5054579;28;20207;-78
2023/01/05 19:40:41;;;;;;;3.80;2.95;;;7.50;99.90;;;;;;5055855;28;20221;-78
2023/01/05 19:43:08;;;;;;;2.40;2.28;;;7.50;99.90;;;;;;5060456;28;20200;-79
2023/01/05 19:45:35;;;;;;;3.10;2.80;;;7.50;99.90;;;;;;5059697;28;20224;-78
2023/01/05 19:48:01;;;;;;;5.43;4.22;;;7.50;99.90;;;;;;5057570;28;20201;-79
2023/01/05 19:50:28;;;;;;;4.65;3.63;;;7.50;99.90;;;;;;5055790;28;20217;-77
2023/01/05 19:52:56;;;;;;;3.10;2.90;;;7.50;99.90;;;;;;5053558;28;20659;-77
2023/01/05 19:55:23;;;;;;;3.83;3.35;;;7.50;99.90;;;;;;5054352;28;20208;-77
2023/01/05 19:57:50;;;;;;;3.42;3.13;;;7.50;99.90;;;;;;5054750;28;20201;-80
2023/01/05 20:00:17;;;;;;;3.15;2.95;;;7.50;99.90;;;;;;5056154;28;20722;-80
2023/01/05 20:02:44;;;;;;;3.55;3.25;;;7.50;99.90;;;;;;5056422;28;20212;-81
2023/01/05 20:05:12;;;;;;;5.28;4.60;;;7.50;99.90;;;;;;5057076;28;20228;-79
2023/01/05 20:07:40;;;;;;;3.90;3.42;;;7.60;99.90;;;;;;5057690;28;20212;-79
2023/01/05 20:10:09;;;;;;;3.50;3.30;;;7.60;99.90;;;;;;5059215;28;20236;-79
2023/01/05 20:12:36;;;;;;;3.92;3.40;;;7.50;99.90;;;;;;5056709;28;20200;-78
2023/01/05 20:15:02;;;;;;;4.25;3.95;;;7.50;99.90;;;;;;5059079;28;20197;-80
2023/01/05 20:17:31;;;;;;;2.55;2.45;;;7.40;99.90;;;;;;5055769;28;20279;-78
2023/01/05 20:19:58;;;;;;;1.80;1.73;;;7.40;99.90;;;;;;5054972;28;20248;-81
2023/01/05 20:22:25;;;;;;;2.25;1.80;;;7.40;99.90;;;;;;5057338;28;20553;-80
2023/01/05 20:24:51;;;;;;;4.43;2.08;;;7.30;99.90;;;;;;5056365;28;20212;-77
2023/01/05 20:27:19;;;;;;;3.15;2.95;;;7.40;99.90;;;;;;5053403;28;20691;-77
2023/01/05 20:29:46;;;;;;;3.53;3.33;;;7.30;99.90;;;;;;5056556;28;20224;-77
2023/01/05 20:32:16;;;;;;;2.75;2.65;;;7.40;99.90;;;;;;5056583;28;20212;-77
2023/01/05 20:34:44;;;;;;;4.15;2.97;;;7.30;99.90;;;;;;5057008;28;20196;-77
2023/01/05 20:37:12;;;;;;;2.70;2.55;;;7.30;99.90;;;;;;5056836;28;20200;-77
2023/01/05 20:39:40;;;;;;;2.58;2.47;;;7.30;99.90;;;;;;5056650;28;20228;-78
2023/01/05 20:42:09;;;;;;;2.30;1.73;;;7.30;99.90;;;;;;5057253;28;20201;-77
2023/01/05 20:44:40;;;;;;;1.98;1.88;;;7.30;99.90;;;;;;5059396;28;20205;-79
2023/01/05 20:47:08;;;;;;;2.90;2.17;;;7.30;99.90;;;;;;5059800;28;20205;-78
2023/01/05 20:49:35;;;;;;;1.85;1.75;;;7.30;99.90;;;;;;5059804;28;20221;-78
2023/01/05 20:52:02;;;;;;;2.30;2.00;;;7.30;99.90;;;;;;5057143;28;20208;-77
2023/01/05 20:54:29;;;;;;;2.03;1.92;;;7.30;99.90;;;;;;5056822;28;20212;-78
2023/01/05 20:56:56;;;;;;;2.10;2.00;;;7.30;99.90;;;;;;5056388;28;20201;-77
2023/01/05 20:59:26;;;;;;;3.50;2.20;;;7.30;99.90;;;;;;5056364;28;20203;-77
2023/01/05 21:01:54;;;;;;;2.20;2.10;;;7.30;99.90;;;;;;5056403;28;20201;-77
2023/01/05 21:04:21;;;;;;;1.20;1.20;;;7.20;99.90;;;;;;5056245;28;20201;-77
2023/01/05 21:06:50;;;;;;;1.30;1.30;;;7.20;99.90;;;;;;5056897;28;20240;-77
2023/01/05 21:09:17;;;;;;;1.77;1.38;;;7.20;99.90;;;;;;5056556;28;20562;-77
2023/01/05 21:11:45;;;;;;;1.55;1.55;;;7.20;99.90;;;;;;5074197;28;20196;-77
2023/01/05 21:14:13;;;;;;;1.88;1.77;;;7.20;99.90;;;;;;5072556;28;20207;-76
2023/01/05 21:16:42;;;;;;;1.60;1.50;;;7.10;99.90;;;;;;5061340;28;20192;-77
2023/01/05 21:19:15;;;;;;;1.08;1.00;;;7.10;99.90;;;;;;5062292;28;20207;-77
2023/01/05 21:21:42;;;;;;;3.22;1.20;;;7.10;99.90;;;;;;5059707;28;20192;-78
2023/01/05 21:24:09;;;;;;;2.22;1.20;;;7.10;99.90;;;;;;5056248;28;20200;-76
2023/01/05 21:26:36;;;;;;;0.90;0.90;;;7.10;99.90;;;;;;5056160;28;20216;-76
2023/01/05 21:29:05;;;;;;;1.13;1.13;;;7.10;99.90;;;;;;5056242;28;20204;-77
2023/01/05 21:31:33;;;;;;;4.60;1.10;;;7.10;99.90;;;;;;5055952;28;20201;-76
2023/01/05 21:34:00;;;;;;;3.60;1.10;;;7.10;99.90;;;;;;5055976;28;20205;-76
2023/01/05 21:36:30;;;;;;;1.00;0.90;;;7.00;99.90;;;;;;5056304;28;20204;-77
2023/01/05 21:38:59;;;;;;;3.28;1.13;;;7.00;99.90;;;;;;5055495;28;20644;-73
2023/01/05 21:44:12;;;;;;;2.40;1.05;;;7.10;99.90;;;;;;5059301;28;20184;-78
2023/01/05 21:46:39;;;;;;;1.40;1.02;;;7.10;99.90;;;;;;5084256;22;20224;-78
2023/01/05 21:49:07;;;;;;;1.00;1.00;;;7.00;99.90;;;;;;5056158;28;20567;-76
2023/01/05 21:57:10;;;;;;;1.85;1.10;;;6.90;99.90;;;;;;5015041;28;20209;-77
2023/01/05 21:59:36;;;;;;;1.42;1.33;;;6.80;99.90;;;;;;5035271;28;20648;-75